sensor_id;sensor_type;location;lat;lon;timestamp;P1;durP1;ratioP1;P2;durP2;ratioP2
79229;SDS011;68663;49.122;17.544;2023-04-01T00:00:52;2.53;;;1.75;;
79229;SDS011;68663;49.122;17.544;2023-04-01T00:03:18;2.63;;;1.92;;
79229;SDS011;68663;49.122;17.544;2023-04-01T00:05:44;2.83;;;1.88;;
79229;SDS011;68663;49.122;17.544;2023-04-01T00:08:10;2.90;;;2.10;;
79229;SDS011;68663;49.122;17.544;2023-04-01T00:10:36;2.60;;;1.85;;
79229;SDS011;68663;49.122;17.544;2023-04-01T00:13:01;2.23;;;1.67;;
79229;SDS011;68663;49.122;17.544;2023-04-01T00:15:27;2.47;;;2.10;;
79229;SDS011;68663;49.122;17.544;2023-04-01T00:17:52;2.63;;;1.80;;
79229;SDS011;68663;49.122;17.544;2023-04-01T00:20:19;3.20;;;1.95;;
79229;SDS011;68663;49.122;17.544;2023-04-01T00:22:45;2.60;;;2.00;;
79229;SDS011;68663;49.122;17.544;2023-04-01T00:25:10;4.43;;;2.10;;
79229;SDS011;68663;49.122;17.544;2023-04-01T00:27:36;3.25;;;2.05;;
79229;SDS011;68663;49.122;17.544;2023-04-01T00:30:02;2.80;;;2.10;;
79229;SDS011;68663;49.122;17.544;2023-04-01T00:32:28;3.42;;;1.90;;
79229;SDS011;68663;49.122;17.544;2023-04-01T00:34:54;3.63;;;1.98;;
79229;SDS011;68663;49.122;17.544;2023-04-01T00:37:20;2.50;;;1.90;;
79229;SDS011;68663;49.122;17.544;2023-04-01T00:39:46;2.55;;;1.77;;
79229;SDS011;68663;49.122;17.544;2023-04-01T00:42:11;2.38;;;1.80;;
79229;SDS011;68663;49.122;17.544;2023-04-01T00:44:38;2.05;;;1.85;;
79229;SDS011;68663;49.122;17.544;2023-04-01T00:47:03;2.90;;;1.83;;
79229;SDS011;68663;49.122;17.544;2023-04-01T00:49:29;2.83;;;1.80;;
79229;SDS011;68663;49.122;17.544;2023-04-01T00:51:59;2.25;;;1.83;;
79229;SDS011;68663;49.122;17.544;2023-04-01T00:54:27;2.63;;;2.00;;
79229;SDS011;68663;49.122;17.544;2023-04-01T00:56:56;2.67;;;1.80;;
79229;SDS011;68663;49.122;17.544;2023-04-01T00:59:47;1.73;;;1.40;;
79229;SDS011;68663;49.122;17.544;2023-04-01T01:02:14;3.25;;;1.95;;
79229;SDS011;68663;49.122;17.544;2023-04-01T01:04:40;2.22;;;1.65;;
79229;SDS011;68663;49.122;17.544;2023-04-01T01:15:20;2.60;;;1.80;;
79229;SDS011;68663;49.122;17.544;2023-04-01T01:17:59;1.90;;;1.65;;
79229;SDS011;68663;49.122;17.544;2023-04-01T01:37:19;2.80;;;1.77;;
79229;SDS011;68663;49.122;17.544;2023-04-01T01:39:49;2.05;;;1.70;;
79229;SDS011;68663;49.122;17.544;2023-04-01T01:42:19;2.47;;;1.73;;
79229;SDS011;68663;49.122;17.544;2023-04-01T01:44:47;2.80;;;1.88;;
79229;SDS011;68663;49.122;17.544;2023-04-01T01:47:15;2.47;;;1.73;;
79229;SDS011;68663;49.122;17.544;2023-04-01T01:49:43;2.60;;;1.80;;
79229;SDS011;68663;49.122;17.544;2023-04-01T01:52:10;2.05;;;1.58;;
79229;SDS011;68663;49.122;17.544;2023-04-01T01:54:46;2.03;;;1.60;;
79229;SDS011;68663;49.122;17.544;2023-04-01T01:57:14;2.42;;;1.67;;
79229;SDS011;68663;49.122;17.544;2023-04-01T01:59:40;2.70;;;1.90;;
79229;SDS011;68663;49.122;17.544;2023-04-01T02:02:08;1.70;;;1.60;;
79229;SDS011;68663;49.122;17.544;2023-04-01T02:04:39;3.17;;;1.85;;
79229;SDS011;68663;49.122;17.544;2023-04-01T02:07:10;1.92;;;1.55;;
79229;SDS011;68663;49.122;17.544;2023-04-01T02:09:41;2.42;;;1.80;;
79229;SDS011;68663;49.122;17.544;2023-04-01T02:12:08;2.40;;;1.77;;
79229;SDS011;68663;49.122;17.544;2023-04-01T02:17:22;2.20;;;1.70;;
79229;SDS011;68663;49.122;17.544;2023-04-01T02:19:52;3.20;;;1.75;;
79229;SDS011;68663;49.122;17.544;2023-04-01T02:22:24;2.67;;;1.90;;
79229;SDS011;68663;49.122;17.544;2023-04-01T02:24:54;2.03;;;1.50;;
79229;SDS011;68663;49.122;17.544;2023-04-01T02:27:23;2.05;;;1.58;;
79229;SDS011;68663;49.122;17.544;2023-04-01T02:29:49;2.42;;;1.58;;
79229;SDS011;68663;49.122;17.544;2023-04-01T02:32:15;3.55;;;1.70;;
79229;SDS011;68663;49.122;17.544;2023-04-01T02:34:42;1.70;;;1.40;;
79229;SDS011;68663;49.122;17.544;2023-04-01T02:37:08;2.10;;;1.55;;
79229;SDS011;68663;49.122;17.544;2023-04-01T02:39:33;2.55;;;1.83;;
79229;SDS011;68663;49.122;17.544;2023-04-01T02:41:59;2.10;;;1.52;;
79229;SDS011;68663;49.122;17.544;2023-04-01T02:44:24;2.10;;;1.52;;
79229;SDS011;68663;49.122;17.544;2023-04-01T02:46:50;2.28;;;1.70;;
79229;SDS011;68663;49.122;17.544;2023-04-01T02:49:15;2.05;;;1.50;;
79229;SDS011;68663;49.122;17.544;2023-04-01T02:51:40;1.70;;;1.50;;
79229;SDS011;68663;49.122;17.544;2023-04-01T02:54:06;1.83;;;1.50;;
79229;SDS011;68663;49.122;17.544;2023-04-01T02:56:31;1.67;;;1.45;;
79229;SDS011;68663;49.122;17.544;2023-04-01T02:58:57;1.95;;;1.67;;
79229;SDS011;68663;49.122;17.544;2023-04-01T03:01:22;2.20;;;1.40;;
79229;SDS011;68663;49.122;17.544;2023-04-01T03:03:47;1.92;;;1.42;;
79229;SDS011;68663;49.122;17.544;2023-04-01T03:06:14;1.85;;;1.38;;
79229;SDS011;68663;49.122;17.544;2023-04-01T03:08:41;2.15;;;1.60;;
79229;SDS011;68663;49.122;17.544;2023-04-01T03:11:06;2.58;;;1.63;;
79229;SDS011;68663;49.122;17.544;2023-04-01T03:13:32;2.20;;;1.50;;
79229;SDS011;68663;49.122;17.544;2023-04-01T03:15:58;2.53;;;1.50;;
79229;SDS011;68663;49.122;17.544;2023-04-01T03:18:23;2.72;;;1.70;;
79229;SDS011;68663;49.122;17.544;2023-04-01T03:20:49;2.20;;;1.70;;
79229;SDS011;68663;49.122;17.544;2023-04-01T03:23:15;2.30;;;1.50;;
79229;SDS011;68663;49.122;17.544;2023-04-01T03:25:42;1.70;;;1.25;;
79229;SDS011;68663;49.122;17.544;2023-04-01T03:28:07;1.45;;;1.33;;
79229;SDS011;68663;49.122;17.544;2023-04-01T03:30:33;2.15;;;1.40;;
79229;SDS011;68663;49.122;17.544;2023-04-01T03:32:59;1.90;;;1.27;;
79229;SDS011;68663;49.122;17.544;2023-04-01T03:35:25;2.47;;;1.73;;
79229;SDS011;68663;49.122;17.544;2023-04-01T03:37:51;1.92;;;1.67;;
79229;SDS011;68663;49.122;17.544;2023-04-01T03:40:17;1.98;;;1.60;;
79229;SDS011;68663;49.122;17.544;2023-04-01T03:42:43;1.58;;;1.23;;
79229;SDS011;68663;49.122;17.544;2023-04-01T03:45:09;2.50;;;1.73;;
79229;SDS011;68663;49.122;17.544;2023-04-01T03:47:36;2.03;;;1.48;;
79229;SDS011;68663;49.122;17.544;2023-04-01T03:50:02;1.83;;;1.27;;
79229;SDS011;68663;49.122;17.544;2023-04-01T03:52:29;1.38;;;1.23;;
79229;SDS011;68663;49.122;17.544;2023-04-01T03:54:54;1.95;;;1.50;;
79229;SDS011;68663;49.122;17.544;2023-04-01T03:57:20;1.92;;;1.50;;
79229;SDS011;68663;49.122;17.544;2023-04-01T03:59:45;1.77;;;1.50;;
79229;SDS011;68663;49.122;17.544;2023-04-01T04:02:11;4.57;;;1.40;;
79229;SDS011;68663;49.122;17.544;2023-04-01T04:04:36;2.23;;;1.50;;
79229;SDS011;68663;49.122;17.544;2023-04-01T04:07:01;1.60;;;1.37;;
79229;SDS011;68663;49.122;17.544;2023-04-01T04:09:27;1.90;;;1.48;;
79229;SDS011;68663;49.122;17.544;2023-04-01T04:11:54;2.00;;;1.50;;
79229;SDS011;68663;49.122;17.544;2023-04-01T04:14:20;2.20;;;1.33;;
79229;SDS011;68663;49.122;17.544;2023-04-01T04:16:45;1.90;;;1.40;;
79229;SDS011;68663;49.122;17.544;2023-04-01T04:19:11;1.90;;;1.47;;
79229;SDS011;68663;49.122;17.544;2023-04-01T04:21:36;2.00;;;1.20;;
79229;SDS011;68663;49.122;17.544;2023-04-01T04:24:02;2.50;;;1.48;;
79229;SDS011;68663;49.122;17.544;2023-04-01T04:26:28;2.03;;;1.55;;
79229;SDS011;68663;49.122;17.544;2023-04-01T04:28:53;2.63;;;1.47;;
79229;SDS011;68663;49.122;17.544;2023-04-01T04:31:21;2.50;;;1.45;;
79229;SDS011;68663;49.122;17.544;2023-04-01T04:33:47;1.90;;;1.33;;
79229;SDS011;68663;49.122;17.544;2023-04-01T04:36:13;2.20;;;1.80;;
79229;SDS011;68663;49.122;17.544;2023-04-01T04:38:38;2.00;;;1.30;;
79229;SDS011;68663;49.122;17.544;2023-04-01T04:41:08;1.80;;;1.38;;
79229;SDS011;68663;49.122;17.544;2023-04-01T04:43:41;1.70;;;1.30;;
79229;SDS011;68663;49.122;17.544;2023-04-01T04:46:07;1.75;;;1.50;;
79229;SDS011;68663;49.122;17.544;2023-04-01T04:48:36;1.48;;;1.30;;
79229;SDS011;68663;49.122;17.544;2023-04-01T04:51:02;1.58;;;1.48;;
79229;SDS011;68663;49.122;17.544;2023-04-01T04:53:28;2.08;;;1.42;;
79229;SDS011;68663;49.122;17.544;2023-04-01T04:55:53;2.20;;;1.58;;
79229;SDS011;68663;49.122;17.544;2023-04-01T04:58:19;1.73;;;1.20;;
79229;SDS011;68663;49.122;17.544;2023-04-01T05:00:44;2.83;;;1.58;;
79229;SDS011;68663;49.122;17.544;2023-04-01T05:03:11;3.58;;;1.50;;
79229;SDS011;68663;49.122;17.544;2023-04-01T05:05:37;1.58;;;1.17;;
79229;SDS011;68663;49.122;17.544;2023-04-01T05:08:03;2.63;;;1.45;;
79229;SDS011;68663;49.122;17.544;2023-04-01T05:10:29;2.17;;;1.30;;
79229;SDS011;68663;49.122;17.544;2023-04-01T05:12:55;2.30;;;1.50;;
79229;SDS011;68663;49.122;17.544;2023-04-01T05:15:20;4.10;;;1.30;;
79229;SDS011;68663;49.122;17.544;2023-04-01T05:17:46;3.70;;;1.83;;
79229;SDS011;68663;49.122;17.544;2023-04-01T05:20:12;1.75;;;1.30;;
79229;SDS011;68663;49.122;17.544;2023-04-01T05:22:38;2.72;;;1.58;;
79229;SDS011;68663;49.122;17.544;2023-04-01T05:25:04;2.08;;;1.48;;
79229;SDS011;68663;49.122;17.544;2023-04-01T05:27:30;2.08;;;1.30;;
79229;SDS011;68663;49.122;17.544;2023-04-01T05:29:55;3.15;;;1.50;;
79229;SDS011;68663;49.122;17.544;2023-04-01T05:32:21;2.55;;;1.75;;
79229;SDS011;68663;49.122;17.544;2023-04-01T05:34:46;2.80;;;1.50;;
79229;SDS011;68663;49.122;17.544;2023-04-01T05:37:15;2.95;;;1.42;;
79229;SDS011;68663;49.122;17.544;2023-04-01T05:39:41;2.75;;;1.30;;
79229;SDS011;68663;49.122;17.544;2023-04-01T05:42:06;2.17;;;1.40;;
79229;SDS011;68663;49.122;17.544;2023-04-01T05:44:32;1.73;;;1.30;;
79229;SDS011;68663;49.122;17.544;2023-04-01T05:46:58;2.65;;;1.33;;
79229;SDS011;68663;49.122;17.544;2023-04-01T05:49:24;3.42;;;1.40;;
79229;SDS011;68663;49.122;17.544;2023-04-01T05:51:49;2.45;;;1.25;;
79229;SDS011;68663;49.122;17.544;2023-04-01T05:54:16;1.63;;;1.35;;
79229;SDS011;68663;49.122;17.544;2023-04-01T05:56:42;2.55;;;1.60;;
79229;SDS011;68663;49.122;17.544;2023-04-01T05:59:09;2.00;;;1.40;;
79229;SDS011;68663;49.122;17.544;2023-04-01T06:01:35;1.90;;;1.40;;
79229;SDS011;68663;49.122;17.544;2023-04-01T06:04:01;1.95;;;1.40;;
79229;SDS011;68663;49.122;17.544;2023-04-01T06:06:27;2.88;;;1.40;;
79229;SDS011;68663;49.122;17.544;2023-04-01T06:08:54;6.45;;;1.50;;
79229;SDS011;68663;49.122;17.544;2023-04-01T06:24:51;7.35;;;1.98;;
79229;SDS011;68663;49.122;17.544;2023-04-01T06:38:44;2.17;;;1.55;;
79229;SDS011;68663;49.122;17.544;2023-04-01T06:41:56;4.25;;;2.17;;
79229;SDS011;68663;49.122;17.544;2023-04-01T06:49:56;2.78;;;1.35;;
79229;SDS011;68663;49.122;17.544;2023-04-01T06:52:42;4.15;;;1.42;;
79229;SDS011;68663;49.122;17.544;2023-04-01T06:58:13;3.28;;;1.40;;
79229;SDS011;68663;49.122;17.544;2023-04-01T07:00:46;2.45;;;1.20;;
79229;SDS011;68663;49.122;17.544;2023-04-01T07:03:21;3.75;;;1.48;;
79229;SDS011;68663;49.122;17.544;2023-04-01T07:05:51;1.90;;;1.38;;
79229;SDS011;68663;49.122;17.544;2023-04-01T07:08:20;2.85;;;1.50;;
79229;SDS011;68663;49.122;17.544;2023-04-01T07:13:28;1.55;;;1.13;;
79229;SDS011;68663;49.122;17.544;2023-04-01T07:18:44;4.78;;;1.58;;
79229;SDS011;68663;49.122;17.544;2023-04-01T07:21:38;3.65;;;2.08;;
79229;SDS011;68663;49.122;17.544;2023-04-01T07:24:11;4.60;;;1.58;;
79229;SDS011;68663;49.122;17.544;2023-04-01T07:26:42;1.67;;;1.10;;
79229;SDS011;68663;49.122;17.544;2023-04-01T07:29:09;2.28;;;1.50;;
79229;SDS011;68663;49.122;17.544;2023-04-01T07:31:59;2.40;;;1.15;;
79229;SDS011;68663;49.122;17.544;2023-04-01T07:57:59;2.72;;;1.50;;
79229;SDS011;68663;49.122;17.544;2023-04-01T08:00:57;2.38;;;1.20;;
79229;SDS011;68663;49.122;17.544;2023-04-01T08:05:54;3.42;;;1.50;;
79229;SDS011;68663;49.122;17.544;2023-04-01T08:21:40;1.73;;;1.10;;
79229;SDS011;68663;49.122;17.544;2023-04-01T08:27:41;5.93;;;1.50;;
79229;SDS011;68663;49.122;17.544;2023-04-01T08:33:09;4.57;;;1.95;;
79229;SDS011;68663;49.122;17.544;2023-04-01T08:35:40;3.10;;;1.80;;
79229;SDS011;68663;49.122;17.544;2023-04-01T08:38:40;4.57;;;2.00;;
79229;SDS011;68663;49.122;17.544;2023-04-01T08:49:58;4.70;;;1.80;;
79229;SDS011;68663;49.122;17.544;2023-04-01T08:52:36;4.38;;;1.70;;
79229;SDS011;68663;49.122;17.544;2023-04-01T08:55:30;3.35;;;1.67;;
79229;SDS011;68663;49.122;17.544;2023-04-01T08:58:07;3.15;;;1.60;;
79229;SDS011;68663;49.122;17.544;2023-04-01T09:01:03;4.57;;;1.42;;
79229;SDS011;68663;49.122;17.544;2023-04-01T09:03:59;2.47;;;1.50;;
79229;SDS011;68663;49.122;17.544;2023-04-01T09:23:38;5.75;;;1.80;;
79229;SDS011;68663;49.122;17.544;2023-04-01T09:26:19;3.00;;;1.50;;
79229;SDS011;68663;49.122;17.544;2023-04-01T09:34:40;3.78;;;1.63;;
79229;SDS011;68663;49.122;17.544;2023-04-01T09:37:35;5.28;;;2.03;;
79229;SDS011;68663;49.122;17.544;2023-04-01T10:15:46;6.90;;;1.73;;
79229;SDS011;68663;49.122;17.544;2023-04-01T10:18:50;6.82;;;1.90;;
79229;SDS011;68663;49.122;17.544;2023-04-01T10:21:26;3.95;;;1.90;;
79229;SDS011;68663;49.122;17.544;2023-04-01T10:49:56;15.52;;;5.80;;
79229;SDS011;68663;49.122;17.544;2023-04-01T10:52:54;38.60;;;12.10;;
79229;SDS011;68663;49.122;17.544;2023-04-01T11:30:28;7.03;;;2.60;;
79229;SDS011;68663;49.122;17.544;2023-04-01T11:33:14;8.05;;;2.70;;
79229;SDS011;68663;49.122;17.544;2023-04-01T11:36:03;6.55;;;2.50;;
79229;SDS011;68663;49.122;17.544;2023-04-01T11:38:44;5.10;;;2.55;;
79229;SDS011;68663;49.122;17.544;2023-04-01T11:44:26;14.10;;;3.63;;
79229;SDS011;68663;49.122;17.544;2023-04-01T12:00:53;11.23;;;6.35;;
79229;SDS011;68663;49.122;17.544;2023-04-01T12:13:53;7.55;;;6.45;;
79229;SDS011;68663;49.122;17.544;2023-04-01T12:17:02;37.00;;;8.10;;
79229;SDS011;68663;49.122;17.544;2023-04-01T12:28:06;18.13;;;7.05;;
79229;SDS011;68663;49.122;17.544;2023-04-01T12:36:13;9.77;;;5.85;;
79229;SDS011;68663;49.122;17.544;2023-04-01T12:41:17;9.35;;;5.43;;
79229;SDS011;68663;49.122;17.544;2023-04-01T12:46:29;8.25;;;4.68;;
79229;SDS011;68663;49.122;17.544;2023-04-01T13:29:13;22.90;;;4.80;;
79229;SDS011;68663;49.122;17.544;2023-04-01T13:34:22;7.35;;;4.95;;
79229;SDS011;68663;49.122;17.544;2023-04-01T13:45:23;10.70;;;4.70;;
79229;SDS011;68663;49.122;17.544;2023-04-01T13:59:28;8.48;;;4.38;;
79229;SDS011;68663;49.122;17.544;2023-04-01T14:02:29;8.52;;;4.45;;
79229;SDS011;68663;49.122;17.544;2023-04-01T14:15:50;11.98;;;4.28;;
79229;SDS011;68663;49.122;17.544;2023-04-01T14:18:33;8.85;;;5.07;;
79229;SDS011;68663;49.122;17.544;2023-04-01T14:37:29;15.95;;;4.30;;
79229;SDS011;68663;49.122;17.544;2023-04-01T14:43:14;13.77;;;3.92;;
79229;SDS011;68663;49.122;17.544;2023-04-01T14:48:38;11.50;;;4.40;;
79229;SDS011;68663;49.122;17.544;2023-04-01T14:51:18;11.50;;;4.15;;
79229;SDS011;68663;49.122;17.544;2023-04-01T14:54:04;12.18;;;3.92;;
79229;SDS011;68663;49.122;17.544;2023-04-01T14:56:38;11.15;;;4.20;;
79229;SDS011;68663;49.122;17.544;2023-04-01T14:59:09;9.43;;;3.95;;
79229;SDS011;68663;49.122;17.544;2023-04-01T15:10:42;14.07;;;3.72;;
79229;SDS011;68663;49.122;17.544;2023-04-01T15:20:54;11.43;;;3.97;;
79229;SDS011;68663;49.122;17.544;2023-04-01T15:29:04;13.45;;;4.10;;
79229;SDS011;68663;49.122;17.544;2023-04-01T15:37:15;10.45;;;3.70;;
79229;SDS011;68663;49.122;17.544;2023-04-01T15:50:17;11.18;;;3.78;;
79229;SDS011;68663;49.122;17.544;2023-04-01T16:01:15;9.50;;;3.95;;
79229;SDS011;68663;49.122;17.544;2023-04-01T16:15:14;5.97;;;3.20;;
79229;SDS011;68663;49.122;17.544;2023-04-01T16:20:40;5.00;;;2.85;;
79229;SDS011;68663;49.122;17.544;2023-04-01T16:23:22;9.43;;;3.45;;
79229;SDS011;68663;49.122;17.544;2023-04-01T16:28:32;7.78;;;3.30;;
79229;SDS011;68663;49.122;17.544;2023-04-01T16:31:51;7.57;;;3.10;;
79229;SDS011;68663;49.122;17.544;2023-04-01T16:34:30;7.85;;;3.15;;
79229;SDS011;68663;49.122;17.544;2023-04-01T16:37:09;7.88;;;3.13;;
79229;SDS011;68663;49.122;17.544;2023-04-01T16:45:34;6.00;;;2.72;;
79229;SDS011;68663;49.122;17.544;2023-04-01T16:48:05;5.40;;;2.63;;
79229;SDS011;68663;49.122;17.544;2023-04-01T16:50:42;8.98;;;3.63;;
79229;SDS011;68663;49.122;17.544;2023-04-01T16:53:24;5.97;;;3.35;;
79229;SDS011;68663;49.122;17.544;2023-04-01T16:58:26;7.65;;;3.95;;
79229;SDS011;68663;49.122;17.544;2023-04-01T17:03:46;8.80;;;3.28;;
79229;SDS011;68663;49.122;17.544;2023-04-01T17:09:30;5.50;;;2.95;;
79229;SDS011;68663;49.122;17.544;2023-04-01T17:31:05;5.65;;;3.00;;
79229;SDS011;68663;49.122;17.544;2023-04-01T17:44:13;8.70;;;3.25;;
79229;SDS011;68663;49.122;17.544;2023-04-01T18:00:33;6.72;;;3.17;;
79229;SDS011;68663;49.122;17.544;2023-04-01T18:09:03;8.50;;;3.10;;
79229;SDS011;68663;49.122;17.544;2023-04-01T18:11:54;5.63;;;2.50;;
79229;SDS011;68663;49.122;17.544;2023-04-01T18:22:41;9.25;;;3.25;;
79229;SDS011;68663;49.122;17.544;2023-04-01T18:28:05;9.73;;;3.50;;
79229;SDS011;68663;49.122;17.544;2023-04-01T18:30:31;10.00;;;3.03;;
79229;SDS011;68663;49.122;17.544;2023-04-01T18:38:13;7.43;;;2.70;;
79229;SDS011;68663;49.122;17.544;2023-04-01T18:43:36;5.50;;;2.47;;
79229;SDS011;68663;49.122;17.544;2023-04-01T18:46:19;6.50;;;2.63;;
79229;SDS011;68663;49.122;17.544;2023-04-01T18:51:25;5.07;;;2.50;;
79229;SDS011;68663;49.122;17.544;2023-04-01T18:54:02;10.23;;;2.83;;
79229;SDS011;68663;49.122;17.544;2023-04-01T18:56:36;10.48;;;3.33;;
79229;SDS011;68663;49.122;17.544;2023-04-01T18:59:21;7.07;;;4.38;;
79229;SDS011;68663;49.122;17.544;2023-04-01T19:05:10;7.45;;;4.40;;
79229;SDS011;68663;49.122;17.544;2023-04-01T19:10:26;6.55;;;4.55;;
79229;SDS011;68663;49.122;17.544;2023-04-01T19:15:44;7.47;;;4.70;;
79229;SDS011;68663;49.122;17.544;2023-04-01T19:18:20;7.70;;;5.30;;
79229;SDS011;68663;49.122;17.544;2023-04-01T19:26:15;6.72;;;4.15;;
79229;SDS011;68663;49.122;17.544;2023-04-01T19:31:42;8.05;;;4.00;;
79229;SDS011;68663;49.122;17.544;2023-04-01T19:43:13;5.45;;;4.22;;
79229;SDS011;68663;49.122;17.544;2023-04-01T19:45:43;7.40;;;3.60;;
79229;SDS011;68663;49.122;17.544;2023-04-01T19:53:51;18.42;;;4.25;;
79229;SDS011;68663;49.122;17.544;2023-04-01T19:56:20;12.82;;;4.55;;
79229;SDS011;68663;49.122;17.544;2023-04-01T20:01:27;11.57;;;4.70;;
79229;SDS011;68663;49.122;17.544;2023-04-01T20:04:05;10.02;;;3.78;;
79229;SDS011;68663;49.122;17.544;2023-04-01T20:12:15;10.02;;;4.13;;
79229;SDS011;68663;49.122;17.544;2023-04-01T20:14:53;6.25;;;4.10;;
79229;SDS011;68663;49.122;17.544;2023-04-01T20:20:03;5.72;;;3.30;;
79229;SDS011;68663;49.122;17.544;2023-04-01T20:27:55;6.70;;;3.35;;
79229;SDS011;68663;49.122;17.544;2023-04-01T20:30:38;5.72;;;3.60;;
79229;SDS011;68663;49.122;17.544;2023-04-01T20:44:32;8.18;;;3.45;;
79229;SDS011;68663;49.122;17.544;2023-04-01T20:47:09;7.60;;;3.72;;
79229;SDS011;68663;49.122;17.544;2023-04-01T21:28:00;5.75;;;3.00;;
79229;SDS011;68663;49.122;17.544;2023-04-01T21:30:31;6.63;;;3.17;;
79229;SDS011;68663;49.122;17.544;2023-04-01T21:36:01;5.28;;;2.90;;
79229;SDS011;68663;49.122;17.544;2023-04-01T21:38:53;4.68;;;2.92;;
79229;SDS011;68663;49.122;17.544;2023-04-01T21:44:36;5.07;;;3.33;;
79229;SDS011;68663;49.122;17.544;2023-04-01T21:47:07;6.00;;;3.45;;
79229;SDS011;68663;49.122;17.544;2023-04-01T22:06:22;6.68;;;2.85;;
79229;SDS011;68663;49.122;17.544;2023-04-01T22:11:57;4.05;;;2.90;;
79229;SDS011;68663;49.122;17.544;2023-04-01T22:28:29;4.22;;;2.85;;
79229;SDS011;68663;49.122;17.544;2023-04-01T22:31:07;5.20;;;3.10;;
79229;SDS011;68663;49.122;17.544;2023-04-01T22:41:44;4.25;;;3.20;;
79229;SDS011;68663;49.122;17.544;2023-04-01T22:44:20;4.03;;;2.80;;
79229;SDS011;68663;49.122;17.544;2023-04-01T22:49:43;3.20;;;2.63;;
79229;SDS011;68663;49.122;17.544;2023-04-01T22:52:18;4.40;;;2.33;;
79229;SDS011;68663;49.122;17.544;2023-04-01T22:54:53;7.47;;;2.72;;
79229;SDS011;68663;49.122;17.544;2023-04-01T23:03:09;3.47;;;2.35;;
79229;SDS011;68663;49.122;17.544;2023-04-01T23:05:41;7.95;;;2.67;;
79229;SDS011;68663;49.122;17.544;2023-04-01T23:11:04;3.70;;;2.60;;
79229;SDS011;68663;49.122;17.544;2023-04-01T23:16:43;3.65;;;2.22;;
79229;SDS011;68663;49.122;17.544;2023-04-01T23:19:54;5.53;;;2.75;;
79229;SDS011;68663;49.122;17.544;2023-04-01T23:36:37;4.43;;;2.40;;
79229;SDS011;68663;49.122;17.544;2023-04-01T23:41:47;4.18;;;2.20;;
79229;SDS011;68663;49.122;17.544;2023-04-01T23:44:13;4.35;;;2.50;;
79229;SDS011;68663;49.122;17.544;2023-04-01T23:46:40;3.58;;;2.47;;
79229;SDS011;68663;49.122;17.544;2023-04-01T23:49:19;5.25;;;2.38;;
79229;SDS011;68663;49.122;17.544;2023-04-01T23:51:50;3.30;;;2.40;;
79229;SDS011;68663;49.122;17.544;2023-04-01T23:56:56;3.97;;;2.38;;
79229;SDS011;68663;49.122;17.544;2023-04-01T23:59:23;4.00;;;2.60;;
